sensor_id;sensor_type;location;lat;lon;timestamp;pressure;altitude;pressure_sealevel;temperature;humidity
6532;BME280;3299;42.004;24.868;2024-01-25T00:01:19;98515.44;;;4.52;80.65
6532;BME280;3299;42.004;24.868;2024-01-25T00:03:44;98549.44;;;4.75;81.18
6532;BME280;3299;42.004;24.868;2024-01-25T00:06:09;98437.09;;;4.28;78.38
6532;BME280;3299;42.004;24.868;2024-01-25T00:08:35;98523.81;;;4.75;77.00
6532;BME280;3299;42.004;24.868;2024-01-25T00:11:04;98459.22;;;4.49;76.84
6532;BME280;3299;42.004;24.868;2024-01-25T00:13:29;98464.03;;;4.75;76.49
6532;BME280;3299;42.004;24.868;2024-01-25T00:15:55;98408.69;;;4.52;76.88
6532;BME280;3299;42.004;24.868;2024-01-25T00:18:20;98384.53;;;4.58;78.25
6532;BME280;3299;42.004;24.868;2024-01-25T00:20:46;98396.50;;;4.76;79.52
6532;BME280;3299;42.004;24.868;2024-01-25T00:23:11;98358.09;;;4.57;81.09
6532;BME280;3299;42.004;24.868;2024-01-25T00:25:37;98404.19;;;4.94;81.84
6532;BME280;3299;42.004;24.868;2024-01-25T00:28:02;98408.13;;;5.01;82.09
6532;BME280;3299;42.004;24.868;2024-01-25T00:30:28;98358.16;;;4.74;80.51
6532;BME280;3299;42.004;24.868;2024-01-25T00:32:54;98399.41;;;4.87;82.28
6532;BME280;3299;42.004;24.868;2024-01-25T00:35:19;98401.91;;;4.88;82.94
6532;BME280;3299;42.004;24.868;2024-01-25T00:37:45;98423.78;;;4.95;83.21
6532;BME280;3299;42.004;24.868;2024-01-25T00:40:11;98332.31;;;4.42;84.71
6532;BME280;3299;42.004;24.868;2024-01-25T00:42:44;98438.25;;;4.96;85.56
6532;BME280;3299;42.004;24.868;2024-01-25T00:45:10;98355.13;;;4.48;87.94
6532;BME280;3299;42.004;24.868;2024-01-25T00:47:36;98340.00;;;4.42;88.96
6532;BME280;3299;42.004;24.868;2024-01-25T00:50:02;98399.44;;;4.68;89.59
6532;BME280;3299;42.004;24.868;2024-01-25T00:52:28;98423.03;;;4.93;90.67
6532;BME280;3299;42.004;24.868;2024-01-25T00:54:54;98425.03;;;4.87;90.60
6532;BME280;3299;42.004;24.868;2024-01-25T00:57:19;98434.09;;;4.94;91.10
6532;BME280;3299;42.004;24.868;2024-01-25T00:59:45;98428.09;;;4.95;91.05
6532;BME280;3299;42.004;24.868;2024-01-25T01:02:12;98396.78;;;4.70;91.29
6532;BME280;3299;42.004;24.868;2024-01-25T01:04:41;98418.31;;;4.84;91.04
6532;BME280;3299;42.004;24.868;2024-01-25T01:07:07;98290.25;;;4.10;91.08
6532;BME280;3299;42.004;24.868;2024-01-25T01:09:33;98338.91;;;4.47;91.57
6532;BME280;3299;42.004;24.868;2024-01-25T01:11:58;98251.97;;;4.07;91.20
6532;BME280;3299;42.004;24.868;2024-01-25T01:14:24;98378.09;;;4.86;91.82
6532;BME280;3299;42.004;24.868;2024-01-25T01:16:49;98353.31;;;4.85;91.07
6532;BME280;3299;42.004;24.868;2024-01-25T01:19:16;98394.25;;;5.24;93.94
6532;BME280;3299;42.004;24.868;2024-01-25T01:21:41;98392.81;;;5.35;87.25
6532;BME280;3299;42.004;24.868;2024-01-25T01:24:09;98362.28;;;5.12;85.40
6532;BME280;3299;42.004;24.868;2024-01-25T01:26:36;98354.16;;;5.04;85.19
6532;BME280;3299;42.004;24.868;2024-01-25T01:29:01;98303.13;;;4.81;87.97
6532;BME280;3299;42.004;24.868;2024-01-25T01:31:27;98278.88;;;4.88;91.09
6532;BME280;3299;42.004;24.868;2024-01-25T01:33:52;98324.22;;;5.22;91.25
6532;BME280;3299;42.004;24.868;2024-01-25T01:36:17;98241.06;;;4.75;92.01
6532;BME280;3299;42.004;24.868;2024-01-25T01:38:43;98260.25;;;5.02;97.04
6532;BME280;3299;42.004;24.868;2024-01-25T01:41:10;98237.84;;;4.88;98.17
6532;BME280;3299;42.004;24.868;2024-01-25T01:43:39;98322.50;;;5.56;100.00
6532;BME280;3299;42.004;24.868;2024-01-25T01:46:09;98232.97;;;5.18;100.00
6532;BME280;3299;42.004;24.868;2024-01-25T01:48:36;98179.03;;;5.02;100.00
6532;BME280;3299;42.004;24.868;2024-01-25T01:51:02;98197.25;;;5.30;100.00
6532;BME280;3299;42.004;24.868;2024-01-25T01:53:28;98259.44;;;5.85;100.00
6532;BME280;3299;42.004;24.868;2024-01-25T01:55:53;98281.81;;;5.98;100.00
6532;BME280;3299;42.004;24.868;2024-01-25T01:58:20;98245.31;;;5.76;99.54
6532;BME280;3299;42.004;24.868;2024-01-25T02:00:48;98251.69;;;6.02;97.76
6532;BME280;3299;42.004;24.868;2024-01-25T02:03:14;98268.94;;;6.15;96.19
6532;BME280;3299;42.004;24.868;2024-01-25T02:05:41;98282.19;;;6.23;93.61
6532;BME280;3299;42.004;24.868;2024-01-25T02:08:06;98182.84;;;5.60;93.47
6532;BME280;3299;42.004;24.868;2024-01-25T02:10:32;98287.66;;;6.17;93.70
6532;BME280;3299;42.004;24.868;2024-01-25T02:12:58;98251.53;;;6.20;94.40
6532;BME280;3299;42.004;24.868;2024-01-25T02:15:23;98232.13;;;5.99;93.97
6532;BME280;3299;42.004;24.868;2024-01-25T02:17:49;98252.00;;;6.11;92.36
6532;BME280;3299;42.004;24.868;2024-01-25T02:20:14;98259.00;;;6.25;93.65
6532;BME280;3299;42.004;24.868;2024-01-25T02:22:40;98258.47;;;6.18;93.91
6532;BME280;3299;42.004;24.868;2024-01-25T02:25:05;98288.34;;;6.52;95.85
6532;BME280;3299;42.004;24.868;2024-01-25T02:27:31;98225.50;;;6.26;90.72
6532;BME280;3299;42.004;24.868;2024-01-25T02:29:56;98262.53;;;6.53;90.71
6532;BME280;3299;42.004;24.868;2024-01-25T02:32:22;98237.69;;;6.83;99.37
6532;BME280;3299;42.004;24.868;2024-01-25T02:34:47;98275.38;;;7.43;98.96
6532;BME280;3299;42.004;24.868;2024-01-25T02:37:13;98271.75;;;7.89;98.11
6532;BME280;3299;42.004;24.868;2024-01-25T02:39:39;98245.75;;;8.34;94.86
6532;BME280;3299;42.004;24.868;2024-01-25T02:42:05;98280.78;;;8.91;91.76
6532;BME280;3299;42.004;24.868;2024-01-25T02:44:30;98199.03;;;8.79;88.30
6532;BME280;3299;42.004;24.868;2024-01-25T02:46:56;98245.06;;;9.24;86.99
6532;BME280;3299;42.004;24.868;2024-01-25T02:49:21;98265.75;;;9.62;85.47
6532;BME280;3299;42.004;24.868;2024-01-25T02:51:49;98195.50;;;9.44;84.06
6532;BME280;3299;42.004;24.868;2024-01-25T02:54:14;98196.94;;;9.48;83.19
6532;BME280;3299;42.004;24.868;2024-01-25T02:56:40;98262.53;;;10.20;81.69
6532;BME280;3299;42.004;24.868;2024-01-25T02:59:05;98179.34;;;9.78;80.29
6532;BME280;3299;42.004;24.868;2024-01-25T03:01:39;98265.41;;;10.41;79.46
6532;BME280;3299;42.004;24.868;2024-01-25T03:04:05;98201.38;;;10.32;77.56
6532;BME280;3299;42.004;24.868;2024-01-25T03:06:31;98209.19;;;10.43;77.43
6532;BME280;3299;42.004;24.868;2024-01-25T03:08:56;98256.44;;;10.57;77.05
6532;BME280;3299;42.004;24.868;2024-01-25T03:11:21;98139.66;;;10.04;76.00
6532;BME280;3299;42.004;24.868;2024-01-25T03:13:47;98260.75;;;10.93;74.54
6532;BME280;3299;42.004;24.868;2024-01-25T03:16:12;98214.97;;;10.82;73.85
6532;BME280;3299;42.004;24.868;2024-01-25T03:18:38;98241.09;;;11.14;73.03
6532;BME280;3299;42.004;24.868;2024-01-25T03:21:03;98251.91;;;11.19;72.36
6532;BME280;3299;42.004;24.868;2024-01-25T03:23:29;98242.38;;;11.19;72.34
6532;BME280;3299;42.004;24.868;2024-01-25T03:25:54;98233.47;;;11.23;71.35
6532;BME280;3299;42.004;24.868;2024-01-25T03:28:20;98269.13;;;11.31;70.92
6532;BME280;3299;42.004;24.868;2024-01-25T03:30:45;98253.59;;;11.20;70.60
6532;BME280;3299;42.004;24.868;2024-01-25T03:33:11;98266.28;;;11.23;70.60
6532;BME280;3299;42.004;24.868;2024-01-25T03:35:36;98157.59;;;10.65;70.69
6532;BME280;3299;42.004;24.868;2024-01-25T03:38:02;98208.75;;;10.96;71.06
6532;BME280;3299;42.004;24.868;2024-01-25T03:40:27;98219.59;;;11.01;70.47
6532;BME280;3299;42.004;24.868;2024-01-25T03:42:53;98275.41;;;11.28;70.30
6532;BME280;3299;42.004;24.868;2024-01-25T03:45:18;98214.25;;;10.91;70.90
6532;BME280;3299;42.004;24.868;2024-01-25T03:47:44;98282.44;;;11.26;70.79
6532;BME280;3299;42.004;24.868;2024-01-25T03:50:09;98202.50;;;10.87;70.08
6532;BME280;3299;42.004;24.868;2024-01-25T03:52:35;98276.47;;;11.37;69.46
6532;BME280;3299;42.004;24.868;2024-01-25T03:55:00;98192.75;;;11.02;69.38
6532;BME280;3299;42.004;24.868;2024-01-25T03:57:26;98191.41;;;10.85;69.73
6532;BME280;3299;42.004;24.868;2024-01-25T03:59:51;98217.50;;;11.06;69.84
6532;BME280;3299;42.004;24.868;2024-01-25T04:02:17;98199.09;;;10.87;69.70
6532;BME280;3299;42.004;24.868;2024-01-25T04:04:42;98203.38;;;10.75;69.59
6532;BME280;3299;42.004;24.868;2024-01-25T04:07:08;98277.09;;;11.17;69.60
6532;BME280;3299;42.004;24.868;2024-01-25T04:09:33;98269.56;;;11.14;69.57
6532;BME280;3299;42.004;24.868;2024-01-25T04:11:59;98281.03;;;11.33;68.86
6532;BME280;3299;42.004;24.868;2024-01-25T04:14:24;98234.91;;;11.04;69.31
6532;BME280;3299;42.004;24.868;2024-01-25T04:16:50;98226.56;;;11.00;68.65
6532;BME280;3299;42.004;24.868;2024-01-25T04:19:16;98275.22;;;11.19;69.27
6532;BME280;3299;42.004;24.868;2024-01-25T04:21:41;98197.44;;;10.86;68.61
6532;BME280;3299;42.004;24.868;2024-01-25T04:24:07;98269.63;;;11.36;68.63
6532;BME280;3299;42.004;24.868;2024-01-25T04:26:32;98282.47;;;11.37;69.52
6532;BME280;3299;42.004;24.868;2024-01-25T04:28:57;98235.63;;;11.06;70.39
6532;BME280;3299;42.004;24.868;2024-01-25T04:31:23;98277.44;;;11.12;71.59
6532;BME280;3299;42.004;24.868;2024-01-25T04:33:48;98266.47;;;10.85;72.47
6532;BME280;3299;42.004;24.868;2024-01-25T04:36:14;98272.00;;;10.81;72.31
6532;BME280;3299;42.004;24.868;2024-01-25T04:38:39;98267.34;;;10.73;72.47
6532;BME280;3299;42.004;24.868;2024-01-25T04:41:05;98274.31;;;10.73;72.43
6532;BME280;3299;42.004;24.868;2024-01-25T04:43:34;98298.16;;;10.89;72.47
6532;BME280;3299;42.004;24.868;2024-01-25T04:46:03;98225.13;;;10.49;72.18
6532;BME280;3299;42.004;24.868;2024-01-25T04:48:29;98203.00;;;10.45;71.67
6532;BME280;3299;42.004;24.868;2024-01-25T04:50:56;98236.22;;;10.75;72.53
6532;BME280;3299;42.004;24.868;2024-01-25T04:53:22;98283.13;;;10.94;71.75
6532;BME280;3299;42.004;24.868;2024-01-25T04:55:47;98231.56;;;10.67;71.91
6532;BME280;3299;42.004;24.868;2024-01-25T04:58:13;98225.41;;;10.57;72.87
6532;BME280;3299;42.004;24.868;2024-01-25T05:00:39;98245.19;;;10.58;72.46
6532;BME280;3299;42.004;24.868;2024-01-25T05:03:05;98255.72;;;10.55;72.78
6532;BME280;3299;42.004;24.868;2024-01-25T05:05:30;98300.59;;;10.67;73.92
6532;BME280;3299;42.004;24.868;2024-01-25T05:07:56;98284.94;;;10.45;74.45
6532;BME280;3299;42.004;24.868;2024-01-25T05:10:21;98193.06;;;9.91;75.08
6532;BME280;3299;42.004;24.868;2024-01-25T05:12:48;98216.75;;;9.97;75.82
6532;BME280;3299;42.004;24.868;2024-01-25T05:15:14;98251.50;;;10.06;76.56
6532;BME280;3299;42.004;24.868;2024-01-25T05:17:39;98215.34;;;9.81;75.83
6532;BME280;3299;42.004;24.868;2024-01-25T05:20:06;98268.47;;;10.10;75.37
6532;BME280;3299;42.004;24.868;2024-01-25T05:22:31;98286.50;;;10.35;75.55
6532;BME280;3299;42.004;24.868;2024-01-25T05:24:57;98243.75;;;10.06;74.51
6532;BME280;3299;42.004;24.868;2024-01-25T05:27:22;98283.31;;;10.44;74.70
6532;BME280;3299;42.004;24.868;2024-01-25T05:29:48;98209.22;;;10.07;75.06
6532;BME280;3299;42.004;24.868;2024-01-25T05:32:14;98213.59;;;10.30;74.19
6532;BME280;3299;42.004;24.868;2024-01-25T05:34:39;98173.13;;;10.05;74.32
6532;BME280;3299;42.004;24.868;2024-01-25T05:37:05;98213.41;;;10.33;74.22
6532;BME280;3299;42.004;24.868;2024-01-25T05:39:30;98272.19;;;10.54;74.89
6532;BME280;3299;42.004;24.868;2024-01-25T05:41:56;98182.81;;;10.02;74.38
6532;BME280;3299;42.004;24.868;2024-01-25T05:44:21;98192.16;;;10.04;74.69
6532;BME280;3299;42.004;24.868;2024-01-25T05:46:46;98242.75;;;10.68;74.58
6532;BME280;3299;42.004;24.868;2024-01-25T05:49:12;98286.50;;;10.71;74.34
6532;BME280;3299;42.004;24.868;2024-01-25T05:51:37;98250.59;;;10.43;74.96
6532;BME280;3299;42.004;24.868;2024-01-25T05:54:03;98219.03;;;10.14;75.64
6532;BME280;3299;42.004;24.868;2024-01-25T05:56:28;98241.03;;;10.20;76.13
6532;BME280;3299;42.004;24.868;2024-01-25T05:58:54;98270.50;;;10.30;76.88
6532;BME280;3299;42.004;24.868;2024-01-25T06:01:19;98312.47;;;10.46;76.48
6532;BME280;3299;42.004;24.868;2024-01-25T06:03:45;98319.50;;;10.44;76.93
6532;BME280;3299;42.004;24.868;2024-01-25T06:06:10;98285.19;;;10.29;75.65
6532;BME280;3299;42.004;24.868;2024-01-25T06:08:36;98323.59;;;10.59;75.34
6532;BME280;3299;42.004;24.868;2024-01-25T06:11:04;98324.22;;;10.62;74.85
6532;BME280;3299;42.004;24.868;2024-01-25T06:13:31;98204.88;;;9.95;75.29
6532;BME280;3299;42.004;24.868;2024-01-25T06:15:56;98242.38;;;10.13;75.44
6532;BME280;3299;42.004;24.868;2024-01-25T06:18:22;98321.03;;;10.46;76.19
6532;BME280;3299;42.004;24.868;2024-01-25T06:20:47;98242.50;;;9.99;76.76
6532;BME280;3299;42.004;24.868;2024-01-25T06:23:13;98322.78;;;10.58;74.88
6532;BME280;3299;42.004;24.868;2024-01-25T06:25:38;98275.53;;;10.44;74.21
6532;BME280;3299;42.004;24.868;2024-01-25T06:28:03;98299.19;;;10.63;73.27
6532;BME280;3299;42.004;24.868;2024-01-25T06:30:29;98289.25;;;10.57;73.17
6532;BME280;3299;42.004;24.868;2024-01-25T06:32:55;98328.59;;;10.85;72.72
6532;BME280;3299;42.004;24.868;2024-01-25T06:35:20;98250.91;;;10.38;72.55
6532;BME280;3299;42.004;24.868;2024-01-25T06:37:45;98287.81;;;10.53;71.06
6532;BME280;3299;42.004;24.868;2024-01-25T06:40:11;98357.47;;;10.92;70.74
6532;BME280;3299;42.004;24.868;2024-01-25T06:42:37;98306.34;;;10.59;70.29
6532;BME280;3299;42.004;24.868;2024-01-25T06:45:02;98355.59;;;10.94;70.05
6532;BME280;3299;42.004;24.868;2024-01-25T06:47:28;98277.50;;;10.40;69.95
6532;BME280;3299;42.004;24.868;2024-01-25T06:49:53;98368.88;;;10.89;70.10
6532;BME280;3299;42.004;24.868;2024-01-25T06:52:19;98290.31;;;10.42;70.50
6532;BME280;3299;42.004;24.868;2024-01-25T06:54:44;98331.97;;;10.62;69.36
6532;BME280;3299;42.004;24.868;2024-01-25T06:57:10;98382.53;;;10.91;68.41
6532;BME280;3299;42.004;24.868;2024-01-25T06:59:35;98335.56;;;10.72;68.04
6532;BME280;3299;42.004;24.868;2024-01-25T07:02:01;98348.28;;;10.75;68.25
6532;BME280;3299;42.004;24.868;2024-01-25T07:04:29;98248.66;;;10.34;68.02
6532;BME280;3299;42.004;24.868;2024-01-25T07:06:55;98363.97;;;10.97;66.73
6532;BME280;3299;42.004;24.868;2024-01-25T07:09:20;98295.97;;;10.59;67.34
6532;BME280;3299;42.004;24.868;2024-01-25T07:11:46;98269.44;;;10.45;67.10
6532;BME280;3299;42.004;24.868;2024-01-25T07:14:11;98285.41;;;10.62;66.26
6532;BME280;3299;42.004;24.868;2024-01-25T07:16:37;98364.03;;;11.08;65.57
6532;BME280;3299;42.004;24.868;2024-01-25T07:19:03;98342.16;;;10.89;64.91
6532;BME280;3299;42.004;24.868;2024-01-25T07:21:28;98265.47;;;10.75;64.33
6532;BME280;3299;42.004;24.868;2024-01-25T07:23:59;98264.28;;;10.92;64.96
6532;BME280;3299;42.004;24.868;2024-01-25T07:26:24;98304.59;;;11.30;64.12
6532;BME280;3299;42.004;24.868;2024-01-25T07:28:49;98308.81;;;11.31;62.03
6532;BME280;3299;42.004;24.868;2024-01-25T07:31:19;98279.94;;;11.14;61.94
6532;BME280;3299;42.004;24.868;2024-01-25T07:33:45;98287.69;;;11.14;61.89
6532;BME280;3299;42.004;24.868;2024-01-25T07:36:10;98329.38;;;11.56;61.54
6532;BME280;3299;42.004;24.868;2024-01-25T07:38:36;98320.53;;;11.48;61.52
6532;BME280;3299;42.004;24.868;2024-01-25T07:41:01;98362.84;;;11.72;61.27
6532;BME280;3299;42.004;24.868;2024-01-25T07:43:27;98346.63;;;11.57;60.79
6532;BME280;3299;42.004;24.868;2024-01-25T07:45:53;98275.22;;;11.19;60.89
6532;BME280;3299;42.004;24.868;2024-01-25T07:48:18;98316.78;;;11.52;60.07
6532;BME280;3299;42.004;24.868;2024-01-25T07:50:43;98274.44;;;11.29;59.89
6532;BME280;3299;42.004;24.868;2024-01-25T07:53:09;98322.97;;;11.62;58.78
6532;BME280;3299;42.004;24.868;2024-01-25T07:55:36;98317.34;;;11.68;59.00
6532;BME280;3299;42.004;24.868;2024-01-25T07:58:01;98302.19;;;11.51;57.94
6532;BME280;3299;42.004;24.868;2024-01-25T08:00:27;98305.94;;;11.70;58.82
6532;BME280;3299;42.004;24.868;2024-01-25T08:02:52;98272.44;;;11.33;58.12
6532;BME280;3299;42.004;24.868;2024-01-25T08:05:17;98318.22;;;11.56;58.58
6532;BME280;3299;42.004;24.868;2024-01-25T08:07:44;98276.13;;;11.41;56.90
6532;BME280;3299;42.004;24.868;2024-01-25T08:10:10;98337.16;;;11.80;56.79
6532;BME280;3299;42.004;24.868;2024-01-25T08:12:35;98333.88;;;11.78;57.21
6532;BME280;3299;42.004;24.868;2024-01-25T08:15:01;98304.31;;;11.57;57.25
6532;BME280;3299;42.004;24.868;2024-01-25T08:17:26;98307.91;;;11.67;57.09
6532;BME280;3299;42.004;24.868;2024-01-25T08:19:52;98271.00;;;11.52;57.21
6532;BME280;3299;42.004;24.868;2024-01-25T08:22:18;98333.16;;;11.87;57.11
6532;BME280;3299;42.004;24.868;2024-01-25T08:24:43;98343.44;;;11.88;57.11
6532;BME280;3299;42.004;24.868;2024-01-25T08:27:09;98342.28;;;11.92;56.91
6532;BME280;3299;42.004;24.868;2024-01-25T08:29:34;98358.19;;;11.99;56.62
6532;BME280;3299;42.004;24.868;2024-01-25T08:32:02;98251.53;;;11.47;56.74
6532;BME280;3299;42.004;24.868;2024-01-25T08:34:28;98235.41;;;11.54;55.97
6532;BME280;3299;42.004;24.868;2024-01-25T08:36:54;98296.63;;;11.79;56.06
6532;BME280;3299;42.004;24.868;2024-01-25T08:39:19;98321.88;;;11.99;55.20
6532;BME280;3299;42.004;24.868;2024-01-25T08:41:45;98355.38;;;12.13;54.65
6532;BME280;3299;42.004;24.868;2024-01-25T08:44:12;98299.34;;;11.88;54.37
6532;BME280;3299;42.004;24.868;2024-01-25T08:46:37;98334.16;;;12.08;53.64
6532;BME280;3299;42.004;24.868;2024-01-25T08:49:04;98350.31;;;12.22;53.11
6532;BME280;3299;42.004;24.868;2024-01-25T08:51:33;98340.06;;;12.21;52.54
6532;BME280;3299;42.004;24.868;2024-01-25T08:53:59;98283.47;;;12.04;53.11
6532;BME280;3299;42.004;24.868;2024-01-25T08:56:24;98259.16;;;11.83;52.06
6532;BME280;3299;42.004;24.868;2024-01-25T08:58:50;98321.91;;;12.32;53.22
6532;BME280;3299;42.004;24.868;2024-01-25T09:01:17;98320.47;;;12.28;52.15
6532;BME280;3299;42.004;24.868;2024-01-25T09:03:43;98333.94;;;12.44;52.77
6532;BME280;3299;42.004;24.868;2024-01-25T09:06:08;98335.09;;;12.51;52.62
6532;BME280;3299;42.004;24.868;2024-01-25T09:08:34;98338.19;;;12.56;52.05
6532;BME280;3299;42.004;24.868;2024-01-25T09:11:00;98292.91;;;12.38;52.61
6532;BME280;3299;42.004;24.868;2024-01-25T09:13:25;98280.88;;;12.37;52.29
6532;BME280;3299;42.004;24.868;2024-01-25T09:15:51;98325.66;;;12.61;51.88
6532;BME280;3299;42.004;24.868;2024-01-25T09:18:16;98308.94;;;12.54;51.90
6532;BME280;3299;42.004;24.868;2024-01-25T09:20:42;98288.41;;;12.51;51.76
6532;BME280;3299;42.004;24.868;2024-01-25T09:23:13;98334.84;;;12.76;51.77
6532;BME280;3299;42.004;24.868;2024-01-25T09:25:38;98282.97;;;12.54;50.72
6532;BME280;3299;42.004;24.868;2024-01-25T09:28:04;98292.88;;;12.60;50.36
6532;BME280;3299;42.004;24.868;2024-01-25T09:30:30;98347.31;;;12.93;50.17
6532;BME280;3299;42.004;24.868;2024-01-25T09:32:55;98335.06;;;12.95;49.77
6532;BME280;3299;42.004;24.868;2024-01-25T09:35:20;98267.41;;;12.54;49.44
6532;BME280;3299;42.004;24.868;2024-01-25T09:37:46;98325.84;;;12.91;48.99
6532;BME280;3299;42.004;24.868;2024-01-25T09:40:12;98343.59;;;12.97;48.11
6532;BME280;3299;42.004;24.868;2024-01-25T09:42:38;98298.88;;;12.60;48.73
6532;BME280;3299;42.004;24.868;2024-01-25T09:45:06;98325.19;;;12.78;49.77
6532;BME280;3299;42.004;24.868;2024-01-25T09:47:32;98334.34;;;12.82;50.34
6532;BME280;3299;42.004;24.868;2024-01-25T09:49:58;98256.31;;;12.41;48.91
6532;BME280;3299;42.004;24.868;2024-01-25T09:52:23;98268.38;;;12.42;49.40
6532;BME280;3299;42.004;24.868;2024-01-25T09:54:52;98344.16;;;12.78;49.93
6532;BME280;3299;42.004;24.868;2024-01-25T09:57:22;98332.03;;;12.68;50.09
6532;BME280;3299;42.004;24.868;2024-01-25T09:59:49;98331.34;;;12.66;49.61
6532;BME280;3299;42.004;24.868;2024-01-25T10:02:16;98275.22;;;12.10;50.15
6532;BME280;3299;42.004;24.868;2024-01-25T10:04:41;98289.34;;;12.28;49.48
6532;BME280;3299;42.004;24.868;2024-01-25T10:07:07;98248.44;;;12.09;49.67
6532;BME280;3299;42.004;24.868;2024-01-25T10:09:41;98331.72;;;12.50;50.77
6532;BME280;3299;42.004;24.868;2024-01-25T10:12:09;98345.97;;;12.67;49.68
6532;BME280;3299;42.004;24.868;2024-01-25T10:14:35;98275.22;;;12.21;50.54
6532;BME280;3299;42.004;24.868;2024-01-25T10:17:01;98342.06;;;12.61;49.61
6532;BME280;3299;42.004;24.868;2024-01-25T10:19:26;98265.91;;;12.18;49.35
6532;BME280;3299;42.004;24.868;2024-01-25T10:21:52;98343.56;;;12.75;49.59
6532;BME280;3299;42.004;24.868;2024-01-25T10:24:18;98339.44;;;12.72;49.65
6532;BME280;3299;42.004;24.868;2024-01-25T10:26:43;98349.13;;;12.81;49.39
6532;BME280;3299;42.004;24.868;2024-01-25T10:29:09;98342.19;;;12.71;49.62
6532;BME280;3299;42.004;24.868;2024-01-25T10:31:38;98370.00;;;12.91;48.94
6532;BME280;3299;42.004;24.868;2024-01-25T10:34:05;98266.69;;;12.41;48.85
6532;BME280;3299;42.004;24.868;2024-01-25T10:36:30;98326.13;;;12.66;48.95
6532;BME280;3299;42.004;24.868;2024-01-25T10:38:57;98345.59;;;12.82;49.29
6532;BME280;3299;42.004;24.868;2024-01-25T10:41:24;98342.41;;;12.79;48.98
6532;BME280;3299;42.004;24.868;2024-01-25T10:43:50;98348.06;;;12.73;49.03
6532;BME280;3299;42.004;24.868;2024-01-25T10:46:16;98289.81;;;12.33;49.52
6532;BME280;3299;42.004;24.868;2024-01-25T10:48:42;98266.25;;;12.25;49.79
6532;BME280;3299;42.004;24.868;2024-01-25T10:51:09;98275.69;;;12.37;50.00
6532;BME280;3299;42.004;24.868;2024-01-25T10:53:36;98281.81;;;12.36;48.38
6532;BME280;3299;42.004;24.868;2024-01-25T10:56:02;98273.69;;;12.29;48.34
6532;BME280;3299;42.004;24.868;2024-01-25T10:58:32;98294.31;;;12.31;48.87
6532;BME280;3299;42.004;24.868;2024-01-25T11:00:59;98325.47;;;12.42;49.38
6532;BME280;3299;42.004;24.868;2024-01-25T11:03:28;98261.88;;;11.81;48.27
6532;BME280;3299;42.004;24.868;2024-01-25T11:06:08;98354.69;;;12.33;49.56
6532;BME280;3299;42.004;24.868;2024-01-25T11:08:40;98354.00;;;12.31;48.98
6532;BME280;3299;42.004;24.868;2024-01-25T11:11:11;98295.47;;;11.94;49.36
6532;BME280;3299;42.004;24.868;2024-01-25T11:13:39;98338.53;;;12.29;49.25
6532;BME280;3299;42.004;24.868;2024-01-25T11:16:18;98242.91;;;11.81;49.03
6532;BME280;3299;42.004;24.868;2024-01-25T11:18:51;98285.09;;;12.05;49.12
6532;BME280;3299;42.004;24.868;2024-01-25T11:24:03;98288.28;;;11.97;49.81
6532;BME280;3299;42.004;24.868;2024-01-25T11:26:31;98245.94;;;11.75;50.81
6532;BME280;3299;42.004;24.868;2024-01-25T11:28:57;98270.13;;;11.97;50.02
6532;BME280;3299;42.004;24.868;2024-01-25T11:31:26;98294.44;;;12.18;50.46
6532;BME280;3299;42.004;24.868;2024-01-25T11:33:51;98267.22;;;12.13;49.48
6532;BME280;3299;42.004;24.868;2024-01-25T11:36:20;98241.28;;;12.02;50.03
6532;BME280;3299;42.004;24.868;2024-01-25T11:38:47;98277.81;;;12.43;50.46
6532;BME280;3299;42.004;24.868;2024-01-25T11:41:13;98304.31;;;12.57;50.55
6532;BME280;3299;42.004;24.868;2024-01-25T11:43:40;98265.63;;;12.43;50.54
6532;BME280;3299;42.004;24.868;2024-01-25T11:46:05;98291.94;;;12.50;50.63
6532;BME280;3299;42.004;24.868;2024-01-25T11:48:31;98288.16;;;12.54;50.83
6532;BME280;3299;42.004;24.868;2024-01-25T11:50:59;98226.28;;;12.16;50.09
6532;BME280;3299;42.004;24.868;2024-01-25T11:53:24;98305.50;;;12.64;50.15
6532;BME280;3299;42.004;24.868;2024-01-25T11:55:50;98260.31;;;12.56;51.05
6532;BME280;3299;42.004;24.868;2024-01-25T11:58:16;98290.59;;;12.77;51.13
6532;BME280;3299;42.004;24.868;2024-01-25T12:00:42;98187.47;;;12.37;49.57
6532;BME280;3299;42.004;24.868;2024-01-25T12:03:08;98252.22;;;12.81;49.91
6532;BME280;3299;42.004;24.868;2024-01-25T12:05:34;98231.22;;;12.84;48.94
6532;BME280;3299;42.004;24.868;2024-01-25T12:08:00;98302.50;;;13.33;47.99
6532;BME280;3299;42.004;24.868;2024-01-25T12:10:25;98310.75;;;13.38;48.66
6532;BME280;3299;42.004;24.868;2024-01-25T12:12:51;98266.41;;;13.19;47.41
6532;BME280;3299;42.004;24.868;2024-01-25T12:15:16;98232.34;;;13.02;47.37
6532;BME280;3299;42.004;24.868;2024-01-25T12:17:42;98262.03;;;13.20;47.31
6532;BME280;3299;42.004;24.868;2024-01-25T12:20:08;98272.66;;;13.17;48.06
6532;BME280;3299;42.004;24.868;2024-01-25T12:22:36;98277.56;;;13.10;47.10
6532;BME280;3299;42.004;24.868;2024-01-25T12:25:06;98254.97;;;12.79;48.36
6532;BME280;3299;42.004;24.868;2024-01-25T12:27:32;98310.44;;;13.21;48.13
6532;BME280;3299;42.004;24.868;2024-01-25T12:29:58;98296.19;;;13.15;48.59
6532;BME280;3299;42.004;24.868;2024-01-25T12:32:24;98253.75;;;12.83;48.46
6532;BME280;3299;42.004;24.868;2024-01-25T12:34:56;98313.56;;;13.04;48.02
6532;BME280;3299;42.004;24.868;2024-01-25T12:37:22;98243.78;;;12.57;49.10
6532;BME280;3299;42.004;24.868;2024-01-25T12:39:48;98243.56;;;12.60;48.75
6532;BME280;3299;42.004;24.868;2024-01-25T12:42:14;98330.38;;;13.00;49.03
6532;BME280;3299;42.004;24.868;2024-01-25T12:44:39;98317.81;;;12.94;49.11
6532;BME280;3299;42.004;24.868;2024-01-25T12:47:05;98207.16;;;12.39;48.66
6532;BME280;3299;42.004;24.868;2024-01-25T12:49:33;98210.25;;;12.22;48.99
6532;BME280;3299;42.004;24.868;2024-01-25T12:51:59;98330.38;;;12.67;48.06
6532;BME280;3299;42.004;24.868;2024-01-25T12:54:24;98231.22;;;12.08;48.79
6532;BME280;3299;42.004;24.868;2024-01-25T12:56:50;98291.56;;;12.43;48.83
6532;BME280;3299;42.004;24.868;2024-01-25T12:59:16;98281.94;;;12.34;49.21
6532;BME280;3299;42.004;24.868;2024-01-25T13:01:41;98264.09;;;12.30;49.23
6532;BME280;3299;42.004;24.868;2024-01-25T13:04:07;98230.06;;;12.01;48.84
6532;BME280;3299;42.004;24.868;2024-01-25T13:06:32;98299.84;;;12.48;48.68
6532;BME280;3299;42.004;24.868;2024-01-25T13:09:17;98289.56;;;12.47;48.56